createdAt,value
2022-11-02T00:00:23.121Z,6.3
2022-11-02T00:01:31.584Z,6.3
2022-11-02T00:02:40.259Z,8.8
2022-11-02T00:03:48.594Z,8.8
2022-11-02T00:04:57.007Z,8.8
2022-11-02T00:06:05.615Z,6.9
2022-11-02T00:07:14.024Z,6.9
2022-11-02T00:08:22.440Z,6.9
2022-11-02T00:09:31.072Z,6.3
2022-11-02T00:10:39.489Z,6.3
2022-11-02T00:11:47.932Z,6.3
2022-11-02T00:12:56.538Z,5.7
2022-11-02T00:14:04.964Z,5.7
2022-11-02T00:15:13.356Z,5.7
2022-11-02T00:16:21.976Z,5.5
2022-11-02T00:17:30.384Z,5.5
2022-11-02T00:18:38.798Z,5.5
2022-11-02T00:19:47.425Z,5.3
2022-11-02T00:20:55.883Z,5.3
2022-11-02T00:22:04.297Z,5.3
2022-11-02T00:23:12.916Z,6.5
2022-11-02T00:24:21.316Z,6.5
2022-11-02T00:25:29.749Z,6.5
2022-11-02T00:26:38.363Z,5.3
2022-11-02T00:27:46.801Z,5.3
2022-11-02T00:28:55.232Z,5.3
2022-11-02T00:30:03.860Z,7.9
2022-11-02T00:31:12.296Z,7.9
2022-11-02T00:32:20.678Z,7.9
2022-11-02T00:33:29.302Z,7.1
2022-11-02T00:34:37.722Z,7.1
2022-11-02T00:35:46.148Z,7.1
2022-11-02T00:36:55.642Z,6.8
2022-11-02T00:38:03.598Z,6.8
2022-11-02T00:39:11.606Z,6.8
2022-11-02T00:40:20.225Z,7.5
2022-11-02T00:41:28.634Z,7.5
2022-11-02T00:42:37.016Z,7.5
2022-11-02T00:43:45.619Z,5.7
2022-11-02T00:44:54.013Z,5.7
2022-11-02T00:46:02.423Z,5.7
2022-11-02T00:47:11.037Z,6.7
2022-11-02T00:48:19.473Z,6.7
2022-11-02T00:49:27.866Z,6.7
2022-11-02T00:50:36.482Z,6.4
2022-11-02T00:51:44.887Z,6.4
2022-11-02T00:52:53.307Z,6.4
2022-11-02T00:54:01.898Z,5.5
2022-11-02T00:55:10.333Z,5.5
2022-11-02T00:56:18.706Z,5.5
2022-11-02T00:57:27.320Z,6.5
2022-11-02T00:58:35.710Z,6.5
2022-11-02T00:59:44.117Z,6.5
2022-11-02T01:00:52.724Z,5.2
2022-11-02T01:02:01.287Z,5.2
2022-11-02T01:03:09.585Z,5.2
2022-11-02T01:04:18.190Z,5
2022-11-02T01:05:26.626Z,5
2022-11-02T01:06:35.049Z,5
2022-11-02T01:07:43.653Z,5.4
2022-11-02T01:08:52.095Z,5.4
2022-11-02T01:10:00.467Z,5.4
2022-11-02T01:11:09.098Z,4.3
2022-11-02T01:12:17.525Z,4.3
2022-11-02T01:13:25.940Z,4.3
2022-11-02T01:14:34.550Z,5.7
2022-11-02T01:15:42.961Z,5.7
2022-11-02T01:16:51.353Z,5.7
2022-11-02T01:17:59.953Z,4.8
2022-11-02T01:19:08.365Z,4.8
2022-11-02T01:20:16.773Z,4.8
2022-11-02T01:21:25.387Z,7
2022-11-02T01:22:33.792Z,7
2022-11-02T01:23:42.219Z,7
2022-11-02T01:24:50.876Z,7.1
2022-11-02T01:25:59.257Z,7.1
2022-11-02T01:27:07.635Z,7.1
2022-11-02T01:28:16.254Z,5.1
2022-11-02T01:29:24.697Z,5.1
2022-11-02T01:30:33.097Z,5.1
2022-11-02T01:31:41.727Z,6.7
2022-11-02T01:32:50.147Z,6.7
2022-11-02T01:33:58.570Z,6.7
2022-11-02T01:35:07.248Z,7.3
2022-11-02T01:36:15.765Z,7.3
2022-11-02T01:37:24.061Z,7.3
2022-11-02T01:38:32.675Z,5.3
2022-11-02T01:39:41.096Z,5.3
2022-11-02T01:40:49.555Z,5.3
2022-11-02T01:41:58.124Z,6
2022-11-02T01:43:06.526Z,6
2022-11-02T01:44:14.940Z,6
2022-11-02T01:45:23.578Z,6.2
2022-11-02T01:46:31.975Z,6.2
2022-11-02T01:47:40.375Z,6.2
2022-11-02T01:48:48.991Z,5
2022-11-02T01:49:57.395Z,5
2022-11-02T01:51:05.799Z,5
2022-11-02T01:52:14.413Z,7
2022-11-02T01:53:22.823Z,7
2022-11-02T01:54:31.250Z,7
2022-11-02T01:55:39.856Z,6.4
2022-11-02T01:56:48.283Z,6.4
2022-11-02T01:57:56.672Z,6.4
2022-11-02T01:59:05.284Z,4.6
2022-11-02T02:00:13.705Z,4.6
2022-11-02T02:01:22.169Z,4.6
2022-11-02T02:02:30.921Z,4.8
2022-11-02T02:03:39.135Z,4.8
2022-11-02T02:04:47.560Z,4.8
2022-11-02T02:05:56.197Z,6.2
2022-11-02T02:07:04.597Z,6.2
2022-11-02T02:08:13.024Z,6.2
2022-11-02T02:09:21.623Z,6
2022-11-02T02:10:30.061Z,6
2022-11-02T02:11:38.457Z,6
2022-11-02T02:12:47.094Z,5.5
2022-11-02T02:13:55.473Z,5.5
2022-11-02T02:15:03.887Z,5.5
2022-11-02T02:16:12.514Z,9.3
2022-11-02T02:17:20.922Z,9.3
2022-11-02T02:18:29.334Z,9.3
2022-11-02T02:19:37.960Z,7.1
2022-11-02T02:20:46.353Z,7.1
2022-11-02T02:21:54.780Z,7.1
2022-11-02T02:23:03.398Z,6.4
2022-11-02T02:24:11.818Z,6.4
2022-11-02T02:25:20.957Z,6.4
2022-11-02T02:26:29.566Z,8.5
2022-11-02T02:27:37.975Z,8.5
2022-11-02T02:28:46.407Z,8.5
2022-11-02T02:29:55.006Z,6.8
2022-11-02T02:31:03.415Z,6.8
2022-11-02T02:32:11.829Z,6.8
2022-11-02T02:33:20.463Z,5.3
2022-11-02T02:34:28.889Z,5.3
2022-11-02T02:35:37.333Z,5.3
2022-11-02T02:37:54.375Z,6.4
2022-11-02T02:39:02.823Z,6.4
2022-11-02T02:40:11.437Z,5.1
2022-11-02T02:41:19.865Z,5.1
2022-11-02T02:42:28.265Z,5.1
2022-11-02T02:43:36.911Z,6.4
2022-11-02T02:44:45.328Z,6.4
2022-11-02T02:45:53.707Z,6.4
2022-11-02T02:47:02.333Z,7.3
2022-11-02T02:48:10.740Z,7.3
2022-11-02T02:49:19.146Z,7.3
2022-11-02T02:50:27.749Z,5.2
2022-11-02T02:51:36.256Z,5.2
2022-11-02T02:52:44.649Z,5.2
2022-11-02T02:53:53.326Z,7.4
2022-11-02T02:55:01.727Z,7.4
2022-11-02T02:56:10.806Z,7.4
2022-11-02T02:57:19.422Z,6.9
2022-11-02T02:58:27.887Z,6.9
2022-11-02T02:59:36.284Z,6.9
2022-11-02T03:00:44.911Z,6.7
2022-11-02T03:01:53.396Z,6.7
2022-11-02T03:03:01.727Z,6.7
2022-11-02T03:04:10.347Z,6.5
2022-11-02T03:05:18.750Z,6.5
2022-11-02T03:06:27.159Z,6.5
2022-11-02T03:07:35.790Z,6.7
2022-11-02T03:08:44.209Z,6.7
2022-11-02T03:09:52.603Z,6.7
2022-11-02T03:11:01.201Z,6.6
2022-11-02T03:12:09.609Z,6.6
2022-11-02T03:13:18.028Z,6.6
2022-11-02T03:14:26.642Z,5.8
2022-11-02T03:15:35.033Z,5.8
2022-11-02T03:16:43.485Z,5.8
2022-11-02T03:17:52.056Z,9.1
2022-11-02T03:19:00.505Z,9.1
2022-11-02T03:20:08.916Z,9.1
2022-11-02T03:21:17.521Z,6.3
2022-11-02T03:22:25.924Z,6.3
2022-11-02T03:23:34.331Z,6.3
2022-11-02T03:24:42.944Z,7.2
2022-11-02T03:25:51.346Z,7.2
2022-11-02T03:26:59.739Z,7.2
2022-11-02T03:28:08.369Z,8
2022-11-02T03:29:16.763Z,8
2022-11-02T03:30:25.189Z,8
2022-11-02T03:31:33.787Z,9.6
2022-11-02T03:32:42.227Z,9.6
2022-11-02T03:33:50.630Z,9.6
2022-11-02T03:34:59.246Z,8.9
2022-11-02T03:36:07.658Z,8.9
2022-11-02T03:37:16.100Z,8.9
2022-11-02T03:38:24.699Z,7.3
2022-11-02T03:39:33.111Z,7.3
2022-11-02T03:40:41.499Z,7.3
2022-11-02T03:41:50.118Z,6.9
2022-11-02T03:42:58.552Z,6.9
2022-11-02T03:44:06.931Z,6.9
2022-11-02T03:45:15.579Z,7
2022-11-02T03:46:23.938Z,7
2022-11-02T03:47:32.370Z,7
2022-11-02T03:48:40.968Z,8.2
2022-11-02T03:49:49.353Z,8.2
2022-11-02T03:50:57.751Z,8.2
2022-11-02T03:52:06.366Z,6
2022-11-02T03:53:14.761Z,6
2022-11-02T03:54:23.163Z,6
2022-11-02T03:55:31.788Z,6.1
2022-11-02T03:56:40.166Z,6.1
2022-11-02T03:57:48.611Z,6.1
2022-11-02T03:58:57.242Z,6
2022-11-02T04:00:05.655Z,6
2022-11-02T04:01:14.068Z,6
2022-11-02T04:02:22.772Z,3.9
2022-11-02T04:03:31.063Z,3.9
2022-11-02T04:04:39.504Z,3.9
2022-11-02T04:05:48.110Z,4.9
2022-11-02T04:06:56.510Z,4.9
2022-11-02T04:08:05.137Z,4.9
2022-11-02T04:09:13.535Z,5.3
2022-11-02T04:10:21.918Z,5.3
2022-11-02T04:11:30.319Z,5.3
2022-11-02T04:12:38.928Z,5.1
2022-11-02T04:13:47.337Z,5.1
2022-11-02T04:14:55.715Z,5.1
2022-11-02T04:16:04.329Z,4.9
2022-11-02T04:17:12.726Z,4.9
2022-11-02T04:18:21.119Z,4.9
2022-11-02T04:19:29.725Z,5.3
2022-11-02T04:20:38.141Z,5.3
2022-11-02T04:21:46.543Z,5.3
2022-11-02T04:22:55.155Z,7.3
2022-11-02T04:24:03.554Z,7.3
2022-11-02T04:25:11.966Z,7.3
2022-11-02T04:26:20.554Z,5.2
2022-11-02T04:27:28.980Z,5.2
2022-11-02T04:28:37.378Z,5.2
2022-11-02T04:29:46.007Z,7.7
2022-11-02T04:30:54.397Z,7.7
2022-11-02T04:32:02.858Z,7.7
2022-11-02T04:33:11.466Z,9.9
2022-11-02T04:34:19.887Z,9.9
2022-11-02T04:35:28.329Z,9.9
2022-11-02T04:36:37.007Z,7.9
2022-11-02T04:37:45.492Z,7.9
2022-11-02T04:38:53.895Z,7.9
2022-11-02T04:40:02.517Z,9.5
2022-11-02T04:41:10.918Z,9.5
2022-11-02T04:42:19.389Z,9.5
2022-11-02T04:43:27.983Z,9.7
2022-11-02T04:44:37.331Z,9.7
2022-11-02T04:45:45.706Z,9.7
2022-11-02T04:46:54.328Z,6.3
2022-11-02T04:48:03.103Z,6.3
2022-11-02T04:49:11.148Z,6.3
2022-11-02T04:50:19.771Z,7.3
2022-11-02T04:51:28.194Z,7.3
2022-11-02T04:52:36.969Z,7.3
2022-11-02T04:53:45.540Z,5.9
2022-11-02T04:54:53.946Z,5.9
2022-11-02T04:56:02.351Z,5.9
2022-11-02T04:57:10.986Z,8.8
2022-11-02T04:58:19.392Z,8.8
2022-11-02T04:59:27.822Z,8.8
2022-11-02T05:00:36.473Z,11.4
2022-11-02T05:01:45.023Z,11.4
2022-11-02T05:02:53.390Z,11.4
2022-11-02T05:04:01.930Z,15.3
2022-11-02T05:05:10.327Z,15.3
2022-11-02T05:06:18.723Z,15.3
2022-11-02T05:07:27.345Z,8.2
2022-11-02T05:08:35.791Z,8.2
2022-11-02T05:09:44.207Z,8.2
2022-11-02T05:10:52.838Z,7.9
2022-11-02T05:12:01.258Z,7.9
2022-11-02T05:13:09.652Z,7.9
2022-11-02T05:14:18.274Z,7.7
2022-11-02T05:15:26.687Z,7.7
2022-11-02T05:16:35.095Z,7.7
2022-11-02T05:17:43.694Z,9.8
2022-11-02T05:18:52.122Z,9.8
2022-11-02T05:20:00.553Z,9.8
2022-11-02T05:21:09.179Z,8.3
2022-11-02T05:22:17.629Z,8.3
2022-11-02T05:23:26.068Z,8.3
2022-11-02T05:24:34.823Z,10.1
2022-11-02T05:25:43.237Z,10.1
2022-11-02T05:26:53.695Z,10.1
2022-11-02T05:28:00.396Z,7.1
2022-11-02T05:29:08.771Z,7.1
2022-11-02T05:30:17.279Z,7.1
2022-11-02T05:31:25.875Z,6
2022-11-02T05:32:34.302Z,6
2022-11-02T05:33:42.656Z,6
2022-11-02T05:34:51.239Z,57.5
2022-11-02T05:35:59.601Z,57.5
2022-11-02T05:37:07.984Z,57.5
2022-11-02T05:38:16.565Z,17.5
2022-11-02T05:39:25.128Z,17.5
2022-11-02T05:40:33.573Z,17.5
2022-11-02T05:41:42.122Z,6.8
2022-11-02T05:42:50.488Z,6.8
2022-11-02T05:43:58.861Z,6.8
2022-11-02T05:45:07.431Z,8.3
2022-11-02T05:46:15.811Z,8.3
2022-11-02T05:47:24.174Z,8.3
2022-11-02T05:48:32.752Z,8.6
2022-11-02T05:49:41.107Z,8.6
2022-11-02T05:50:49.514Z,8.6
2022-11-02T05:51:58.149Z,8.1
2022-11-02T05:53:06.919Z,8.1
2022-11-02T05:54:14.929Z,8.1
2022-11-02T05:55:23.514Z,9.7
2022-11-02T05:56:32.115Z,9.7
2022-11-02T05:57:40.471Z,9.7
2022-11-02T05:58:49.208Z,8
2022-11-02T05:59:57.490Z,8
2022-11-02T06:01:05.909Z,8
2022-11-02T06:02:14.515Z,10.8
2022-11-02T06:03:22.943Z,10.8
2022-11-02T06:04:31.383Z,10.8
2022-11-02T06:05:40.022Z,8.6
2022-11-02T06:06:48.389Z,8.6
2022-11-02T06:07:56.814Z,8.6
2022-11-02T06:09:07.230Z,9
2022-11-02T06:10:13.815Z,9
2022-11-02T06:11:22.220Z,9
2022-11-02T06:12:30.848Z,6.8
2022-11-02T06:13:39.213Z,6.8
2022-11-02T06:14:47.602Z,6.8
2022-11-02T06:15:56.203Z,7.2
2022-11-02T06:17:04.597Z,7.2
2022-11-02T06:18:13.005Z,7.2
2022-11-02T06:19:21.589Z,8.8
2022-11-02T06:20:29.957Z,8.8
2022-11-02T06:21:38.330Z,8.8
2022-11-02T06:22:46.919Z,7.1
2022-11-02T06:23:55.297Z,7.1
2022-11-02T06:25:03.666Z,7.1
2022-11-02T06:26:12.252Z,7.1
2022-11-02T06:27:20.632Z,7.1
2022-11-02T06:28:29.024Z,7.1
2022-11-02T06:29:37.573Z,7.3
2022-11-02T06:30:45.961Z,7.3
2022-11-02T06:31:54.328Z,7.3
2022-11-02T06:33:06.881Z,7.9
2022-11-02T06:34:11.271Z,7.9
2022-11-02T06:35:19.645Z,7.9
2022-11-02T06:36:28.228Z,7.8
2022-11-02T06:37:36.599Z,7.8
2022-11-02T06:38:44.960Z,7.8
2022-11-02T06:39:53.535Z,10.2
2022-11-02T06:41:01.918Z,10.2
2022-11-02T06:42:10.280Z,10.2
2022-11-02T06:43:19.214Z,9.1
2022-11-02T06:44:27.238Z,9.1
2022-11-02T06:45:35.605Z,9.1
2022-11-02T06:46:44.179Z,10.1
2022-11-02T06:47:52.549Z,10.1
2022-11-02T06:49:00.898Z,10.1
2022-11-02T06:50:09.481Z,11.7
2022-11-02T06:51:17.868Z,11.7
2022-11-02T06:52:26.238Z,11.7
2022-11-02T06:53:34.818Z,8.2
2022-11-02T06:54:43.211Z,8.2
2022-11-02T06:55:51.602Z,8.2
2022-11-02T06:57:00.167Z,7.6
2022-11-02T06:58:08.560Z,7.6
2022-11-02T06:59:16.911Z,7.6
2022-11-02T07:00:25.521Z,7.7
2022-11-02T07:01:34.086Z,7.7
2022-11-02T07:02:42.259Z,7.7
2022-11-02T07:03:50.830Z,9.1
2022-11-02T07:04:59.201Z,9.1
2022-11-02T07:06:12.888Z,9.1
2022-11-02T07:07:16.167Z,9.8
2022-11-02T07:08:24.556Z,9.8
2022-11-02T07:09:32.905Z,9.8
2022-11-02T07:10:41.498Z,10.9
2022-11-02T07:11:49.867Z,10.9
2022-11-02T07:12:58.239Z,10.9
2022-11-02T07:14:06.823Z,23.4
2022-11-02T07:15:15.199Z,23.4
2022-11-02T07:16:23.602Z,23.4
2022-11-02T07:17:32.488Z,6.6
2022-11-02T07:18:40.537Z,6.6
2022-11-02T07:19:48.897Z,6.6
2022-11-02T07:20:57.488Z,7.6
2022-11-02T07:22:05.863Z,7.6
2022-11-02T07:23:14.224Z,7.6
2022-11-02T07:24:22.796Z,9.4
2022-11-02T07:25:31.220Z,9.4
2022-11-02T07:26:39.584Z,9.4
2022-11-02T07:27:48.161Z,7.8
2022-11-02T07:28:59.183Z,7.8
2022-11-02T07:30:04.906Z,7.8
2022-11-02T07:31:13.482Z,7.4
2022-11-02T07:32:21.868Z,7.4
2022-11-02T07:33:30.185Z,7.4
2022-11-02T07:34:38.754Z,8.7
2022-11-02T07:35:47.116Z,8.7
2022-11-02T07:36:55.474Z,8.7
2022-11-02T07:38:04.028Z,8.2
2022-11-02T07:39:12.375Z,8.2
2022-11-02T07:40:20.735Z,8.2
2022-11-02T07:41:29.294Z,5.9
2022-11-02T07:42:37.651Z,5.9
2022-11-02T07:43:46.009Z,5.9
2022-11-02T07:44:54.580Z,8.9
2022-11-02T07:46:02.954Z,8.9
2022-11-02T07:47:11.309Z,8.9
2022-11-02T07:48:19.892Z,14.7
2022-11-02T07:49:28.223Z,14.7
2022-11-02T07:50:36.585Z,14.7
2022-11-02T07:51:45.147Z,7.2
2022-11-02T07:52:53.505Z,7.2
2022-11-02T07:54:01.851Z,7.2
2022-11-02T07:55:10.421Z,14.6
2022-11-02T07:56:18.776Z,14.6
2022-11-02T07:57:27.127Z,14.6
2022-11-02T07:58:35.690Z,11.9
2022-11-02T07:59:44.043Z,11.9
2022-11-02T08:00:55.907Z,11.9
2022-11-02T08:02:00.981Z,7.9
2022-11-02T08:03:09.842Z,7.9
2022-11-02T08:04:17.805Z,7.9
2022-11-02T08:05:26.284Z,8.3
2022-11-02T08:06:34.628Z,8.3
2022-11-02T08:07:42.984Z,8.3
2022-11-02T08:08:51.550Z,7.6
2022-11-02T08:09:59.911Z,7.6
2022-11-02T08:11:08.267Z,7.6
2022-11-02T08:12:16.826Z,8.5
2022-11-02T08:13:25.185Z,8.5
2022-11-02T08:14:33.552Z,8.5
2022-11-02T08:15:42.126Z,6.7
2022-11-02T08:16:50.489Z,6.7
2022-11-02T08:17:58.846Z,6.7
2022-11-02T08:19:07.423Z,9.2
2022-11-02T08:20:15.805Z,9.2
2022-11-02T08:21:24.130Z,9.2
2022-11-02T08:22:32.684Z,6.8
2022-11-02T08:23:41.049Z,6.8
2022-11-02T08:24:49.410Z,6.8
2022-11-02T08:25:57.962Z,8.4
2022-11-02T08:27:06.314Z,8.4
2022-11-02T08:28:14.688Z,8.4
2022-11-02T08:29:23.249Z,7.5
2022-11-02T08:30:31.605Z,7.5
2022-11-02T08:31:39.941Z,7.5
2022-11-02T08:32:51.521Z,9.8
2022-11-02T08:33:56.876Z,9.8
2022-11-02T08:35:05.261Z,9.8
2022-11-02T08:36:13.860Z,8.8
2022-11-02T08:37:22.195Z,8.8
2022-11-02T08:38:30.569Z,8.8
2022-11-02T08:39:39.140Z,10.3
2022-11-02T08:40:47.487Z,10.3
2022-11-02T08:41:55.842Z,10.3
2022-11-02T08:43:04.404Z,8.8
2022-11-02T08:44:12.768Z,8.8
2022-11-02T08:45:21.120Z,8.8
2022-11-02T08:46:29.681Z,7.8
2022-11-02T08:47:38.033Z,7.8
2022-11-02T08:48:46.397Z,7.8
2022-11-02T08:49:54.963Z,9.4
2022-11-02T08:51:03.310Z,9.4
2022-11-02T08:52:11.680Z,9.4
2022-11-02T08:53:20.224Z,7.9
2022-11-02T08:54:28.598Z,7.9
2022-11-02T08:55:36.963Z,7.9
2022-11-02T08:56:45.532Z,9.6
2022-11-02T08:57:53.906Z,9.6
2022-11-02T08:59:02.263Z,9.6
2022-11-02T09:00:10.839Z,9.9
2022-11-02T09:01:19.217Z,9.9
2022-11-02T09:02:27.710Z,9.9
2022-11-02T09:03:36.141Z,10.1
2022-11-02T09:04:44.500Z,10.1
2022-11-02T09:05:52.858Z,10.1
2022-11-02T09:07:01.438Z,7.1
2022-11-02T09:08:09.860Z,7.1
2022-11-02T09:09:18.147Z,7.1
2022-11-02T09:10:26.696Z,6.7
2022-11-02T09:11:35.061Z,6.7
2022-11-02T09:12:43.433Z,6.7
2022-11-02T09:13:56.613Z,7.8
2022-11-02T09:15:00.383Z,7.8
2022-11-02T09:16:08.736Z,7.8
2022-11-02T09:17:17.297Z,6.8
2022-11-02T09:18:25.668Z,6.8
2022-11-02T09:19:34.024Z,6.8
2022-11-02T09:20:42.567Z,5.8
2022-11-02T09:21:50.934Z,5.8
2022-11-02T09:22:59.289Z,5.8
2022-11-02T09:24:07.917Z,7.1
2022-11-02T09:25:16.220Z,7.1
2022-11-02T09:26:24.578Z,7.1
2022-11-02T09:27:33.165Z,8.9
2022-11-02T09:28:41.534Z,8.9
2022-11-02T09:29:49.891Z,8.9
2022-11-02T09:30:58.452Z,8.9
2022-11-02T09:32:06.827Z,8.9
2022-11-02T09:33:15.194Z,8.9
2022-11-02T09:34:23.791Z,6.5
2022-11-02T09:35:32.135Z,6.5
2022-11-02T09:36:40.511Z,6.5
2022-11-02T09:37:50.080Z,8.6
2022-11-02T09:38:57.443Z,8.6
2022-11-02T09:40:05.819Z,8.6
2022-11-02T09:41:14.374Z,7.3
2022-11-02T09:42:22.739Z,7.3
2022-11-02T09:43:32.555Z,7.3
2022-11-02T09:44:39.672Z,10.3
2022-11-02T09:45:48.029Z,10.3
2022-11-02T09:47:28.247Z,10.3
2022-11-02T09:48:17.013Z,8.9
2022-11-02T09:49:13.314Z,8.9
2022-11-02T09:50:21.908Z,8.9
2022-11-02T09:51:30.291Z,9.4
2022-11-02T09:52:38.657Z,9.4
2022-11-02T09:53:47.013Z,9.4
2022-11-02T09:54:55.588Z,9.4
2022-11-02T09:56:03.957Z,9.4
2022-11-02T09:57:12.294Z,9.4
2022-11-02T09:58:20.877Z,10.1
2022-11-02T09:59:29.247Z,10.1
2022-11-02T10:00:37.598Z,10.1
2022-11-02T10:01:46.183Z,9.9
2022-11-02T10:02:54.594Z,9.9
2022-11-02T10:04:02.912Z,9.9
2022-11-02T10:05:11.468Z,12.3
2022-11-02T10:06:19.850Z,12.3
2022-11-02T10:07:28.207Z,12.3
2022-11-02T10:08:36.772Z,8.9
2022-11-02T10:09:45.142Z,8.9
2022-11-02T10:10:53.495Z,8.9
2022-11-02T10:12:02.091Z,7.1
2022-11-02T10:13:10.419Z,7.1
2022-11-02T10:14:18.762Z,7.1
2022-11-02T10:15:27.325Z,8.5
2022-11-02T10:16:35.678Z,8.5
2022-11-02T10:17:44.033Z,8.5
2022-11-02T10:18:52.601Z,6.4
2022-11-02T10:20:00.946Z,6.4
2022-11-02T10:21:09.306Z,6.4
2022-11-02T10:22:17.858Z,5.4
2022-11-02T10:23:26.217Z,5.4
2022-11-02T10:24:34.564Z,5.4
2022-11-02T10:25:43.128Z,9
2022-11-02T10:26:51.484Z,9
2022-11-02T10:27:59.903Z,9
2022-11-02T10:29:08.408Z,6.3
2022-11-02T10:30:16.752Z,6.3
2022-11-02T10:31:25.119Z,6.3
2022-11-02T10:32:33.707Z,7.3
2022-11-02T10:33:42.027Z,7.3
2022-11-02T10:34:54.104Z,7.3
2022-11-02T10:37:07.323Z,6.1
2022-11-02T10:38:16.106Z,6.1
2022-11-02T10:39:24.234Z,5.8
2022-11-02T10:40:32.598Z,5.8
2022-11-02T10:41:40.951Z,5.8
2022-11-02T10:42:49.525Z,8.1
2022-11-02T10:43:57.906Z,8.1
2022-11-02T10:45:06.245Z,8.1
2022-11-02T10:46:14.828Z,6.8
2022-11-02T10:47:23.174Z,6.8
2022-11-02T10:48:31.536Z,6.8
2022-11-02T10:49:40.092Z,6.3
2022-11-02T10:50:48.451Z,6.3
2022-11-02T10:51:56.801Z,6.3
2022-11-02T10:53:27.163Z,9
2022-11-02T10:54:14.288Z,9
2022-11-02T10:55:22.073Z,9
2022-11-02T10:56:30.647Z,7.7
2022-11-02T10:57:39.003Z,7.7
2022-11-02T10:58:47.356Z,7.7
2022-11-02T10:59:56.991Z,6.4
2022-11-02T11:01:04.321Z,6.4
2022-11-02T11:02:12.640Z,6.4
2022-11-02T11:03:21.213Z,8.1
2022-11-02T11:04:29.586Z,8.1
2022-11-02T11:05:37.953Z,8.1
2022-11-02T11:06:46.517Z,6.7
2022-11-02T11:07:54.877Z,6.7
2022-11-02T11:09:03.244Z,6.7
2022-11-02T11:10:11.808Z,7.7
2022-11-02T11:11:20.195Z,7.7
2022-11-02T11:12:28.564Z,7.7
2022-11-02T11:15:53.870Z,4.8
2022-11-02T11:20:27.708Z,6.4
2022-11-02T11:21:36.057Z,6.4
2022-11-02T11:22:44.427Z,6.4
2022-11-02T11:23:52.982Z,5.5
2022-11-02T11:25:01.354Z,5.5
2022-11-02T11:26:09.719Z,5.5
2022-11-02T11:27:18.282Z,6.9
2022-11-02T11:28:26.636Z,6.9
2022-11-02T11:29:34.990Z,6.9
2022-11-02T11:30:59.310Z,5.1
2022-11-02T11:31:51.923Z,5.1
2022-11-02T11:33:00.252Z,5.1
2022-11-02T11:34:08.802Z,5.6
2022-11-02T11:35:17.193Z,5.6
2022-11-02T11:37:34.126Z,5.6
2022-11-02T11:38:42.470Z,5.6
2022-11-02T11:39:52.439Z,5.6
2022-11-02T11:40:59.383Z,4.6
2022-11-02T11:42:07.740Z,4.6
2022-11-02T11:43:16.105Z,4.6
2022-11-02T11:44:24.666Z,6.4
2022-11-02T11:45:33.091Z,6.4
2022-11-02T11:46:41.372Z,6.4
2022-11-02T11:47:49.971Z,6.8
2022-11-02T11:48:58.284Z,6.8
2022-11-02T11:50:08.340Z,6.8
2022-11-02T11:51:15.211Z,5.6
2022-11-02T11:52:27.130Z,5.6
2022-11-02T11:53:31.938Z,5.6
2022-11-02T11:54:40.502Z,4.4
2022-11-02T11:55:48.849Z,4.4
2022-11-02T11:56:57.192Z,4.4
2022-11-02T11:58:05.946Z,5
2022-11-02T11:59:14.109Z,5
2022-11-02T12:00:22.489Z,5
2022-11-02T12:01:31.133Z,7.4
2022-11-02T12:02:44.104Z,7.4
2022-11-02T12:03:47.792Z,7.4
2022-11-02T12:04:56.333Z,4.8
2022-11-02T12:06:04.691Z,4.8
2022-11-02T12:07:13.031Z,4.8
2022-11-02T12:08:21.597Z,6.1
2022-11-02T12:09:29.970Z,6.1
2022-11-02T12:10:38.318Z,6.1
2022-11-02T12:11:46.883Z,5.1
2022-11-02T12:12:55.231Z,5.1
2022-11-02T12:14:03.585Z,5.1
2022-11-02T12:15:12.151Z,6.4
2022-11-02T12:16:20.527Z,6.4
2022-11-02T12:17:28.887Z,6.4
2022-11-02T12:18:37.452Z,5.4
2022-11-02T12:19:45.837Z,5.4
2022-11-02T12:20:54.172Z,5.4
2022-11-02T12:22:02.733Z,5.4
2022-11-02T12:23:11.061Z,5.4
2022-11-02T12:24:19.427Z,5.4
2022-11-02T12:25:27.981Z,6.3
2022-11-02T12:26:36.326Z,6.3
2022-11-02T12:27:44.676Z,6.3
2022-11-02T12:28:53.236Z,7.9
2022-11-02T12:30:01.599Z,7.9
2022-11-02T12:31:09.944Z,7.9
2022-11-02T12:32:18.494Z,6.1
2022-11-02T12:33:26.845Z,6.1
2022-11-02T12:34:35.205Z,6.1
2022-11-02T12:35:43.784Z,6
2022-11-02T12:37:26.367Z,6
2022-11-02T12:38:00.497Z,6
2022-11-02T12:39:09.079Z,5.1
2022-11-02T12:40:17.515Z,5.1
2022-11-02T12:41:25.798Z,5.1
2022-11-02T12:42:35.016Z,8.3
2022-11-02T12:43:42.724Z,8.3
2022-11-02T12:44:51.073Z,8.3
2022-11-02T12:45:59.632Z,5.6
2022-11-02T12:47:07.979Z,5.6
2022-11-02T12:48:16.340Z,5.6
2022-11-02T12:49:24.900Z,5.4
2022-11-02T12:50:33.246Z,5.4
2022-11-02T12:51:41.630Z,5.4
2022-11-02T12:52:50.157Z,5
2022-11-02T12:53:58.528Z,5
2022-11-02T12:55:06.884Z,5
2022-11-02T12:56:15.459Z,6.8
2022-11-02T12:57:23.786Z,6.8
2022-11-02T12:58:32.136Z,6.8
2022-11-02T12:59:40.705Z,5.9
2022-11-02T13:00:49.089Z,5.9
2022-11-02T13:01:57.587Z,5.9
2022-11-02T13:03:06.175Z,3.5
2022-11-02T13:04:14.302Z,3.5
2022-11-02T13:05:22.651Z,3.5
2022-11-02T13:06:31.201Z,3.4
2022-11-02T13:07:39.594Z,3.4
2022-11-02T13:08:47.921Z,3.4
2022-11-02T13:09:56.506Z,3.9
2022-11-02T13:11:04.853Z,3.9
2022-11-02T13:12:13.206Z,3.9
2022-11-02T13:13:21.760Z,3.1
2022-11-02T13:14:30.127Z,3.1
2022-11-02T13:15:38.482Z,3.1
2022-11-02T13:16:47.041Z,4.3
2022-11-02T13:17:55.395Z,4.3
2022-11-02T13:19:03.773Z,4.3
2022-11-02T13:20:12.376Z,5.8
2022-11-02T13:21:20.738Z,5.8
2022-11-02T13:22:29.964Z,5.8
2022-11-02T13:23:38.545Z,4.2
2022-11-02T13:24:46.896Z,4.2
2022-11-02T13:25:55.240Z,4.2
2022-11-02T13:27:14.121Z,4
2022-11-02T13:28:12.718Z,4
2022-11-02T13:29:20.510Z,4
2022-11-02T13:30:29.064Z,6.9
2022-11-02T13:31:37.412Z,6.9
2022-11-02T13:32:45.767Z,6.9
2022-11-02T13:33:54.333Z,4.2
2022-11-02T13:35:02.691Z,4.2
2022-11-02T13:36:11.051Z,4.2
2022-11-02T13:37:19.606Z,4.8
2022-11-02T13:38:27.948Z,4.8
2022-11-02T13:39:36.337Z,4.8
2022-11-02T13:40:44.872Z,5.3
2022-11-02T13:41:53.221Z,5.3
2022-11-02T13:43:01.583Z,5.3
2022-11-02T13:44:10.168Z,3.5
2022-11-02T13:45:18.553Z,3.5
2022-11-02T13:46:26.855Z,3.5
2022-11-02T13:47:35.420Z,3.8
2022-11-02T13:48:43.774Z,3.8
2022-11-02T13:49:52.148Z,3.8
2022-11-02T13:51:00.697Z,4.9
2022-11-02T13:52:12.008Z,4.9
2022-11-02T13:53:17.405Z,4.9
2022-11-02T13:54:25.988Z,4
2022-11-02T13:55:34.357Z,4
2022-11-02T13:56:42.667Z,4
2022-11-02T13:57:51.233Z,2.6
2022-11-02T13:58:59.581Z,2.6
2022-11-02T14:00:07.922Z,2.6
2022-11-02T14:01:16.533Z,4.1
2022-11-02T14:02:24.950Z,4.1
2022-11-02T14:03:33.171Z,4.1
2022-11-02T14:04:41.733Z,5.3
2022-11-02T14:05:50.087Z,5.3
2022-11-02T14:06:58.438Z,5.3
2022-11-02T14:08:07.269Z,5.6
2022-11-02T14:09:15.346Z,5.6
2022-11-02T14:10:23.681Z,5.6
2022-11-02T14:11:32.271Z,5.9
2022-11-02T14:12:40.596Z,5.9
2022-11-02T14:13:48.947Z,5.9
2022-11-02T14:14:57.535Z,5.2
2022-11-02T14:16:05.897Z,5.2
2022-11-02T14:17:14.266Z,5.2
2022-11-02T14:18:22.838Z,5.7
2022-11-02T14:19:31.198Z,5.7
2022-11-02T14:20:39.549Z,5.7
2022-11-02T14:21:48.111Z,4.6
2022-11-02T14:22:56.456Z,4.6
2022-11-02T14:24:04.820Z,4.6
2022-11-02T14:25:13.376Z,3.8
2022-11-02T14:26:21.715Z,3.8
2022-11-02T14:27:30.147Z,3.8
2022-11-02T14:28:38.694Z,4.8
2022-11-02T15:02:40.223Z,0
2022-11-02T15:03:46.581Z,0
2022-11-02T15:04:55.149Z,0
2022-11-02T15:06:03.926Z,5.3
2022-11-02T15:07:12.156Z,5.3
2022-11-02T15:08:20.515Z,5.3
2022-11-02T15:09:29.066Z,4.4
2022-11-02T15:10:37.827Z,4.4
2022-11-02T15:11:46.182Z,4.4
2022-11-02T15:12:54.766Z,5.1
2022-11-02T15:14:03.117Z,5.1
2022-11-02T15:15:11.473Z,5.1
2022-11-02T15:16:20.254Z,6.3
2022-11-02T15:17:28.597Z,6.3
2022-11-02T15:18:36.994Z,6.3
2022-11-02T15:19:45.522Z,5.4
2022-11-02T15:20:53.872Z,5.4
2022-11-02T15:22:02.211Z,5.4
2022-11-02T15:23:14.478Z,5.1
2022-11-02T15:24:19.651Z,5.1
2022-11-02T15:25:27.935Z,5.1
2022-11-02T15:26:40.815Z,4.9
2022-11-02T15:27:44.861Z,4.9
2022-11-02T15:28:53.180Z,4.9
2022-11-02T15:30:02.606Z,6.1
2022-11-02T15:31:10.079Z,6.1
2022-11-02T15:32:22.514Z,6.1
2022-11-02T15:33:27.271Z,4.3
2022-11-02T15:34:35.643Z,4.3
2022-11-02T15:35:43.997Z,4.3
2022-11-02T15:36:52.650Z,4.6
2022-11-02T15:38:16.856Z,4.6
2022-11-02T15:39:09.361Z,4.6
2022-11-02T15:40:17.918Z,6.6
2022-11-02T15:41:26.275Z,6.6
2022-11-02T15:42:34.630Z,6.6
2022-11-02T15:43:43.263Z,6
2022-11-02T15:44:51.560Z,6
2022-11-02T15:46:03.447Z,6
2022-11-02T15:47:08.459Z,4.6
2022-11-02T15:48:16.824Z,4.6
2022-11-02T15:49:25.175Z,4.6
2022-11-02T15:50:33.769Z,5.2
2022-11-02T15:51:42.094Z,5.2
2022-11-02T15:53:08.977Z,5.2
2022-11-02T15:53:59.114Z,4.9
2022-11-02T15:55:07.616Z,4.9
2022-11-02T15:56:15.967Z,4.9
2022-11-02T15:57:24.527Z,6.7
2022-11-02T15:58:32.869Z,6.7
2022-11-02T15:59:41.226Z,6.7
2022-11-02T16:00:49.814Z,5.5
2022-11-02T16:01:58.200Z,5.5
2022-11-02T16:03:06.483Z,5.5
2022-11-02T16:05:23.515Z,6
2022-11-02T16:06:31.790Z,6
2022-11-02T16:07:57.200Z,3.4
2022-11-02T16:08:48.672Z,3.4
2022-11-02T16:09:57.019Z,3.4
2022-11-02T16:11:05.601Z,7.4
2022-11-02T16:12:13.950Z,7.4
2022-11-02T16:13:22.313Z,7.4
2022-11-02T16:14:30.869Z,8.5
2022-11-02T16:15:39.242Z,8.5
2022-11-02T16:16:47.675Z,8.5
2022-11-02T16:17:56.142Z,3.8
2022-11-02T16:19:04.490Z,3.8
2022-11-02T16:20:12.851Z,3.8
2022-11-02T16:21:21.402Z,5.9
2022-11-02T16:22:29.796Z,5.9
2022-11-02T16:23:38.110Z,5.9
2022-11-02T16:24:46.675Z,10.1
2022-11-02T16:25:55.033Z,10.1
2022-11-02T16:27:03.406Z,10.1
2022-11-02T16:28:11.956Z,13.8